Time;durP1;ratioP1;P1;durP2;ratioP2;P2;SDS_P1;SDS_P2;PMS_P1;PMS_P2;Temp;Humidity;BMP_temperature;BMP_pressure;BME280_temperature;BME280_humidity;BME280_pressure;Samples;Min_cycle;Max_cycle;Signal;HPM_P1;HPM_P2
2023/05/01 11:03:20;;;;;;;3.80;1.00;;;18.80;99.10;;;;;;5132447;27;20310;-80
2023/05/01 11:06:03;;;;;;;2.33;1.15;;;19.00;97.40;;;;;;5132087;28;20575;-77
2023/05/01 11:08:32;;;;;;;7.50;1.40;;;19.00;98.50;;;;;;5131681;28;20539;-81
2023/05/01 11:11:18;;;;;;;4.65;1.67;;;19.20;99.90;;;;;;5131935;27;20038;-81
2023/05/01 11:14:03;;;;;;;3.80;1.60;;;19.40;98.70;;;;;;5131690;27;20043;-74
2023/05/01 11:16:44;;;;;;;3.28;1.35;;;19.60;99.00;;;;;;5131900;27;20039;-74
2023/05/01 11:19:33;;;;;;;4.50;1.58;;;19.60;98.50;;;;;;5131851;27;20083;-74
2023/05/01 11:21:59;;;;;;;4.15;1.60;;;19.60;97.30;;;;;;5131562;27;20080;-74
2023/05/01 11:24:31;;;;;;;3.53;1.50;;;19.70;99.50;;;;;;5131666;27;20121;-78
2023/05/01 11:27:00;;;;;;;3.17;1.40;;;19.80;96.90;;;;;;5132080;27;20035;-78
2023/05/01 11:29:31;;;;;;;3.28;1.45;;;19.80;98.40;;;;;;5131894;27;20046;-78
2023/05/01 11:31:57;;;;;;;6.03;1.50;;;19.80;97.40;;;;;;5131734;27;20071;-74
2023/05/01 11:34:24;;;;;;;8.93;1.80;;;20.00;98.10;;;;;;5131650;27;20039;-75
2023/05/01 11:36:51;;;;;;;3.33;1.70;;;20.10;98.70;;;;;;5131796;27;20085;-76
2023/05/01 11:39:17;;;;;;;3.22;2.00;;;20.30;97.50;;;;;;5131548;27;20047;-74
2023/05/01 11:41:43;;;;;;;5.37;2.00;;;20.20;98.20;;;;;;5131550;27;20040;-74
2023/05/01 11:44:11;;;;;;;4.70;2.03;;;20.40;98.80;;;;;;5131481;27;20283;-76
2023/05/01 11:46:37;;;;;;;4.53;1.80;;;20.30;98.90;;;;;;5131300;27;20104;-76
2023/05/01 11:49:04;;;;;;;2.87;1.73;;;20.40;98.90;;;;;;5130331;27;20729;-76
2023/05/01 11:51:30;;;;;;;7.18;1.90;;;20.50;97.70;;;;;;5130744;27;20062;-76
2023/05/01 11:54:09;;;;;;;7.10;1.98;;;20.40;97.10;;;;;;5131207;27;20040;-75
2023/05/01 11:56:35;;;;;;;5.28;2.13;;;20.40;97.60;;;;;;5131421;27;20057;-75
2023/05/01 11:59:15;;;;;;;3.78;1.67;;;20.50;97.00;;;;;;5131051;27;20069;-75
2023/05/01 12:01:45;;;;;;;4.53;2.08;;;20.60;98.60;;;;;;5130993;27;20044;-75
2023/05/01 12:04:12;;;;;;;2.85;1.77;;;20.60;97.40;;;;;;5131064;27;20039;-75
2023/05/01 12:06:45;;;;;;;4.68;2.05;;;20.70;97.60;;;;;;5130990;27;20088;-75
2023/05/01 12:09:22;;;;;;;2.53;1.40;;;20.80;95.80;;;;;;5130971;27;20088;-75
2023/05/01 12:11:52;;;;;;;1.95;1.17;;;20.90;97.00;;;;;;5130986;27;20073;-75
2023/05/01 12:14:20;;;;;;;3.50;1.35;;;21.10;97.20;;;;;;5118098;27;20036;-76
2023/05/01 12:16:46;;;;;;;4.07;1.40;;;21.20;94.30;;;;;;5117143;28;20478;-76
2023/05/01 12:19:13;;;;;;;2.33;1.20;;;21.20;96.80;;;;;;5117139;28;20379;-76
2023/05/01 12:21:40;;;;;;;2.92;1.48;;;21.10;97.00;;;;;;5116965;28;20042;-76
2023/05/01 12:24:17;;;;;;;2.50;1.20;;;21.00;96.60;;;;;;5115753;28;20047;-75
2023/05/01 12:26:44;;;;;;;4.75;1.23;;;20.90;96.10;;;;;;5116913;28;20050;-75
2023/05/01 12:29:10;;;;;;;4.50;1.67;;;20.70;97.10;;;;;;5116910;28;20044;-76
2023/05/01 12:31:37;;;;;;;3.17;1.45;;;20.70;96.90;;;;;;5116923;28;20032;-76
2023/05/01 12:34:05;;;;;;;2.17;1.13;;;20.60;95.50;;;;;;5115959;28;20356;-76
2023/05/01 12:36:35;;;;;;;2.53;1.20;;;20.50;96.00;;;;;;5116494;28;20039;-76
2023/05/01 12:39:04;;;;;;;2.42;1.30;;;20.50;96.70;;;;;;5116712;28;20066;-76
2023/05/01 12:41:39;;;;;;;2.72;1.40;;;20.40;96.40;;;;;;5116569;28;20035;-75
2023/05/01 12:44:24;;;;;;;4.07;1.45;;;20.40;94.60;;;;;;5116671;28;20044;-76
2023/05/01 12:46:59;;;;;;;4.30;1.30;;;20.60;95.60;;;;;;5116672;28;20467;-76
2023/05/01 12:49:26;;;;;;;4.70;1.58;;;20.70;94.60;;;;;;5116851;28;20113;-76
2023/05/01 12:51:53;;;;;;;3.53;1.45;;;20.80;96.30;;;;;;5116819;28;20043;-76
2023/05/01 12:54:20;;;;;;;2.08;1.13;;;21.00;95.60;;;;;;5116286;28;20039;-75
2023/05/01 12:56:46;;;;;;;1.60;1.05;;;21.20;92.70;;;;;;5116344;28;20085;-75
2023/05/01 12:59:25;;;;;;;2.10;1.10;;;21.20;94.60;;;;;;5116496;28;20039;-75
2023/05/01 13:02:04;;;;;;;2.47;1.00;;;21.30;93.40;;;;;;5115825;28;20058;-75
2023/05/01 13:04:30;;;;;;;2.45;1.17;;;21.40;93.20;;;;;;5116446;28;20479;-75
2023/05/01 13:06:57;;;;;;;2.00;1.10;;;21.50;94.50;;;;;;5116017;28;20482;-75
2023/05/01 13:09:26;;;;;;;3.13;1.42;;;21.50;94.90;;;;;;5116451;28;20425;-75
2023/05/01 13:12:04;;;;;;;2.30;1.20;;;21.40;93.70;;;;;;5115982;28;20475;-75
2023/05/01 13:14:40;;;;;;;4.18;1.10;;;21.60;93.00;;;;;;5115909;28;20036;-75
2023/05/01 13:17:07;;;;;;;4.20;1.25;;;21.60;93.60;;;;;;5114866;28;20086;-75
2023/05/01 13:19:33;;;;;;;3.05;1.30;;;21.50;94.20;;;;;;5115927;28;20039;-75
2023/05/01 13:21:59;;;;;;;3.83;1.15;;;21.30;93.60;;;;;;5116046;28;20039;-75
2023/05/01 13:24:39;;;;;;;2.85;1.20;;;21.30;93.70;;;;;;5114830;28;20028;-76
2023/05/01 13:27:07;;;;;;;3.95;1.30;;;21.20;94.00;;;;;;5115775;28;20123;-75
2023/05/01 13:29:33;;;;;;;2.85;1.52;;;21.30;94.10;;;;;;5115666;28;20211;-75
2023/05/01 13:31:59;;;;;;;2.50;1.20;;;21.30;93.90;;;;;;5115755;28;20421;-75
2023/05/01 13:34:30;;;;;;;3.13;1.40;;;21.50;95.00;;;;;;5115629;28;20616;-75
2023/05/01 13:36:57;;;;;;;2.40;1.20;;;21.50;94.30;;;;;;5115650;28;20032;-75
2023/05/01 13:39:23;;;;;;;2.78;1.15;;;21.50;94.20;;;;;;5115438;28;20043;-75
2023/05/01 13:41:50;;;;;;;3.72;1.15;;;21.70;94.50;;;;;;5115413;28;20088;-75
2023/05/01 13:44:17;;;;;;;1.90;1.20;;;21.70;94.20;;;;;;5115442;28;20051;-75
2023/05/01 13:46:43;;;;;;;;;;;21.70;93.70;;;;;;5116059;28;20123;-75
2023/05/01 13:49:09;;;;;;;2.53;0.80;;;21.80;92.70;;;;;;5115285;28;20390;-75
2023/05/01 13:51:41;;;;;;;3.03;0.90;;;21.90;93.90;;;;;;5115431;28;20044;-75
2023/05/01 13:54:08;;;;;;;1.90;1.08;;;21.90;92.00;;;;;;5115236;28;20032;-75
2023/05/01 13:56:34;;;;;;;2.15;1.20;;;21.90;93.00;;;;;;5115228;28;20040;-75
2023/05/01 13:59:00;;;;;;;2.60;1.20;;;21.70;95.20;;;;;;5115142;28;20161;-75
2023/05/01 14:01:26;;;;;;;1.97;1.00;;;21.70;95.50;;;;;;5114414;28;20138;-75
2023/05/01 14:03:55;;;;;;;1.60;1.13;;;21.80;95.20;;;;;;5115323;27;20047;-75
2023/05/01 14:06:23;;;;;;;2.75;1.20;;;21.70;93.20;;;;;;5114976;28;20044;-75
2023/05/01 14:08:50;;;;;;;3.38;1.10;;;21.80;93.40;;;;;;5114894;28;20043;-75
2023/05/01 14:11:17;;;;;;;1.30;0.82;;;21.60;93.30;;;;;;5115221;28;20036;-74
2023/05/01 14:13:47;;;;;;;3.78;0.90;;;21.30;93.40;;;;;;5114863;28;20039;-74
2023/05/01 14:16:26;;;;;;;2.42;1.00;;;21.20;93.00;;;;;;5114805;28;20036;-73
2023/05/01 14:18:55;;;;;;;1.63;0.90;;;20.80;95.50;;;;;;5114695;28;20035;-74
2023/05/01 14:21:22;;;;;;;1.65;1.10;;;20.70;96.40;;;;;;5114380;28;20475;-74
2023/05/01 14:23:49;;;;;;;2.17;0.90;;;20.50;94.20;;;;;;5114561;28;20043;-73
2023/05/01 14:26:16;;;;;;;;;;;20.40;94.00;;;;;;5114789;28;20031;-74
2023/05/01 14:28:43;;;;;;;3.33;1.23;;;20.40;94.70;;;;;;5113546;28;19945;-74
2023/05/01 14:31:29;;;;;;;1.33;0.75;;;20.20;94.50;;;;;;5114581;28;20036;-75
2023/05/01 14:33:59;;;;;;;2.25;1.00;;;20.00;94.50;;;;;;5113862;28;20047;-74
2023/05/01 14:36:32;;;;;;;2.42;1.00;;;19.80;94.20;;;;;;5114360;28;20138;-75
2023/05/01 14:39:00;;;;;;;2.45;1.00;;;19.80;94.30;;;;;;5114436;28;20035;-74
2023/05/01 14:41:26;;;;;;;3.22;1.10;;;19.80;95.80;;;;;;5114226;28;20088;-74
2023/05/01 14:43:52;;;;;;;4.13;1.00;;;19.80;96.00;;;;;;5113735;28;20078;-74
2023/05/01 14:46:33;;;;;;;2.35;0.95;;;19.80;95.20;;;;;;5114387;28;20035;-75
2023/05/01 14:48:59;;;;;;;2.33;1.05;;;19.80;94.80;;;;;;5114782;28;20035;-74
2023/05/01 14:51:26;;;;;;;2.85;0.90;;;19.90;95.70;;;;;;5114580;28;20096;-75
2023/05/01 14:53:52;;;;;;;2.10;1.13;;;20.00;95.90;;;;;;5114324;28;20115;-74
2023/05/01 14:56:18;;;;;;;1.70;0.97;;;20.00;95.30;;;;;;5112761;28;20499;-75
2023/05/01 14:58:43;;;;;;;4.30;1.60;;;20.00;94.00;;;;;;5114224;28;20047;-75
2023/05/01 15:01:09;;;;;;;2.57;1.23;;;20.00;95.80;;;;;;5113996;28;20055;-75
2023/05/01 15:03:39;;;;;;;1.60;1.00;;;20.00;95.40;;;;;;5114839;28;20092;-74
2023/05/01 15:06:08;;;;;;;2.28;1.00;;;20.00;96.20;;;;;;5114173;28;20043;-75
2023/05/01 15:08:35;;;;;;;1.67;1.20;;;20.10;96.80;;;;;;5114070;28;20035;-75
2023/05/01 15:11:01;;;;;;;1.70;1.20;;;20.10;95.70;;;;;;5114140;28;20036;-75
2023/05/01 15:13:27;;;;;;;3.90;1.20;;;20.10;96.30;;;;;;5113083;28;20390;-75
2023/05/01 15:15:53;;;;;;;1.73;1.10;;;20.00;95.80;;;;;;5113286;28;20070;-75
2023/05/01 15:18:21;;;;;;;2.30;1.27;;;19.80;95.20;;;;;;5114083;28;20035;-75
2023/05/01 15:20:46;;;;;;;1.33;1.00;;;19.70;96.10;;;;;;5114159;28;20039;-76
2023/05/01 15:23:12;;;;;;;2.40;1.10;;;19.70;96.40;;;;;;5113817;28;20403;-73
2023/05/01 15:25:38;;;;;;;2.33;1.27;;;19.70;95.80;;;;;;5113977;28;20027;-77
2023/05/01 15:28:03;;;;;;;3.33;1.00;;;19.80;96.90;;;;;;5113911;28;20051;-73
2023/05/01 15:30:29;;;;;;;3.80;1.10;;;19.90;97.50;;;;;;5113930;28;20383;-79
2023/05/01 15:32:55;;;;;;;1.20;0.83;;;19.90;96.30;;;;;;5114007;28;20062;-74
2023/05/01 15:35:22;;;;;;;2.23;1.10;;;19.90;96.00;;;;;;5114188;28;20062;-74
2023/05/01 15:37:48;;;;;;;2.78;1.13;;;19.80;97.00;;;;;;5113917;28;20051;-76
2023/05/01 15:40:13;;;;;;;2.70;1.23;;;19.90;96.70;;;;;;5113802;28;20378;-80
2023/05/01 15:42:39;;;;;;;2.77;1.20;;;19.80;96.50;;;;;;5113705;28;20121;-72
2023/05/01 15:45:05;;;;;;;2.63;1.10;;;19.70;96.70;;;;;;5113849;28;20039;-73
2023/05/01 15:47:31;;;;;;;2.05;1.20;;;19.70;97.00;;;;;;5113829;28;20050;-73
2023/05/01 15:49:56;;;;;;;3.70;1.40;;;19.30;96.40;;;;;;5116517;28;20032;-74
2023/05/01 15:52:22;;;;;;;2.07;1.37;;;19.30;96.80;;;;;;5117601;28;20494;-73
2023/05/01 15:54:47;;;;;;;3.07;1.37;;;19.20;96.10;;;;;;5117519;28;20048;-72
2023/05/01 15:57:16;;;;;;;2.43;1.43;;;19.30;96.30;;;;;;5116502;28;20054;-73
2023/05/01 15:59:42;;;;;;;4.07;2.05;;;19.40;96.90;;;;;;5117450;28;20135;-72
2023/05/01 16:02:07;;;;;;;5.47;1.67;;;19.50;98.10;;;;;;5117042;28;20134;-73
2023/05/01 16:04:33;;;;;;;7.30;2.40;;;19.60;98.50;;;;;;5117245;28;20055;-74
2023/05/01 16:07:01;;;;;;;3.50;1.93;;;19.70;98.80;;;;;;5117429;28;20042;-73
2023/05/01 16:09:32;;;;;;;3.08;1.83;;;19.50;98.90;;;;;;5117094;28;20467;-82
2023/05/01 16:12:00;;;;;;;3.20;1.45;;;19.50;99.40;;;;;;5116866;28;20034;-74
2023/05/01 16:14:26;;;;;;;3.53;1.50;;;19.30;98.80;;;;;;5117165;28;20387;-73
2023/05/01 16:16:51;;;;;;;3.83;1.63;;;19.30;99.30;;;;;;5117122;28;20027;-76
2023/05/01 16:19:17;;;;;;;2.93;1.80;;;19.20;99.50;;;;;;5117105;28;20529;-73
2023/05/01 16:21:43;;;;;;;3.08;1.67;;;19.20;99.60;;;;;;5116945;28;20043;-73
2023/05/01 16:24:09;;;;;;;2.90;1.50;;;19.20;99.90;;;;;;5116790;28;20489;-72
2023/05/01 16:26:35;;;;;;;7.28;1.50;;;19.20;99.90;;;;;;5116927;28;20043;-71
2023/05/01 16:29:04;;;;;;;2.97;1.60;;;19.00;99.40;;;;;;5116895;28;20038;-77
2023/05/01 16:31:43;;;;;;;3.50;2.00;;;18.80;99.50;;;;;;5116613;28;20071;-74
2023/05/01 16:34:12;;;;;;;4.28;1.60;;;18.70;99.90;;;;;;5116816;28;20044;-73
2023/05/01 16:36:43;;;;;;;4.72;1.70;;;18.60;99.90;;;;;;5116778;28;20124;-73
2023/05/01 16:39:17;;;;;;;3.53;1.67;;;18.50;99.90;;;;;;5116775;28;20043;-74
2023/05/01 16:41:51;;;;;;;3.55;1.70;;;18.40;99.90;;;;;;5114945;28;20031;-74
2023/05/01 16:44:18;;;;;;;5.00;1.95;;;18.30;99.90;;;;;;5116184;28;20050;-74
2023/05/01 16:46:52;;;;;;;5.47;1.80;;;18.30;99.90;;;;;;5116314;28;20040;-74
2023/05/01 16:49:18;;;;;;;2.80;1.75;;;18.20;99.90;;;;;;5116457;28;20036;-74
2023/05/01 16:51:44;;;;;;;5.23;1.93;;;18.00;99.90;;;;;;5115924;28;20039;-74
2023/05/01 16:54:10;;;;;;;4.63;2.00;;;17.80;99.90;;;;;;5116257;28;20071;-74
2023/05/01 16:56:36;;;;;;;5.60;2.20;;;17.80;99.90;;;;;;5131643;27;20479;-74
2023/05/01 16:59:02;;;;;;;4.07;1.98;;;17.70;99.90;;;;;;5115893;28;20039;-73
2023/05/01 17:01:27;;;;;;;3.83;1.83;;;17.60;99.90;;;;;;5115835;28;20086;-73
2023/05/01 17:03:53;;;;;;;4.60;2.10;;;17.60;99.90;;;;;;5116175;28;20160;-74
2023/05/01 17:06:19;;;;;;;4.93;2.10;;;17.60;99.90;;;;;;5115592;28;20478;-72
2023/05/01 17:08:44;;;;;;;8.77;1.90;;;17.50;99.90;;;;;;5115872;28;20042;-72
2023/05/01 17:11:10;;;;;;;4.20;1.87;;;17.50;99.90;;;;;;5115550;28;20380;-72
2023/05/01 17:13:36;;;;;;;3.57;1.53;;;17.50;99.90;;;;;;5115896;28;20423;-72
2023/05/01 17:16:02;;;;;;;2.70;1.90;;;17.40;99.90;;;;;;5115483;28;20188;-72
2023/05/01 17:18:27;;;;;;;6.50;2.20;;;17.40;99.90;;;;;;5115549;28;20047;-73
2023/05/01 17:20:53;;;;;;;6.07;2.03;;;17.40;99.90;;;;;;5115534;28;20047;-74
2023/05/01 17:23:18;;;;;;;7.67;1.70;;;17.30;99.90;;;;;;5115741;28;20047;-74
2023/05/01 17:25:44;;;;;;;4.70;1.93;;;17.30;99.90;;;;;;5115574;28;20117;-73
2023/05/01 17:28:10;;;;;;;4.10;1.77;;;17.30;99.90;;;;;;5115320;28;20039;-73
2023/05/01 17:30:35;;;;;;;4.50;1.70;;;17.30;99.90;;;;;;5115190;28;20047;-72
2023/05/01 17:33:01;;;;;;;6.37;1.77;;;17.30;99.90;;;;;;5115221;28;20046;-73
2023/05/01 17:35:27;;;;;;;4.70;2.67;;;17.20;99.90;;;;;;5115540;28;20050;-75
2023/05/01 17:37:52;;;;;;;4.90;2.73;;;17.10;99.90;;;;;;5115265;28;20118;-76
2023/05/01 17:40:18;;;;;;;7.33;2.77;;;17.00;99.90;;;;;;5115184;28;20036;-73
2023/05/01 17:42:43;;;;;;;5.37;2.70;;;16.90;99.90;;;;;;5115249;28;20118;-73
2023/05/01 17:45:10;;;;;;;7.10;3.23;;;16.80;99.90;;;;;;5114804;28;20126;-75
2023/05/01 17:47:41;;;;;;;6.13;3.03;;;16.80;99.90;;;;;;5148596;27;20431;-73
2023/05/01 17:50:11;;;;;;;5.30;3.25;;;16.70;99.90;;;;;;5115272;28;20089;-73
2023/05/01 17:52:43;;;;;;;4.25;3.00;;;16.70;99.90;;;;;;5115201;28;20039;-73
2023/05/01 17:55:10;;;;;;;7.03;3.30;;;16.60;99.90;;;;;;5115208;28;20109;-73
2023/05/01 17:57:38;;;;;;;5.25;3.20;;;16.60;99.90;;;;;;5114680;28;20039;-74
2023/05/01 18:00:05;;;;;;;5.32;3.38;;;16.60;99.90;;;;;;5114938;28;20056;-73
2023/05/01 18:02:31;;;;;;;6.13;3.22;;;16.60;99.90;;;;;;5113708;28;20052;-74
2023/05/01 18:04:57;;;;;;;3.93;2.87;;;16.40;99.90;;;;;;5114486;28;20043;-73
2023/05/01 18:07:22;;;;;;;6.07;3.53;;;16.40;99.90;;;;;;5114965;28;20463;-74
2023/05/01 18:09:48;;;;;;;5.50;2.87;;;16.30;99.90;;;;;;5114792;28;20546;-73
2023/05/01 18:12:13;;;;;;;4.53;3.17;;;16.30;99.90;;;;;;5114002;28;20043;-73
2023/05/01 18:14:39;;;;;;;6.03;4.03;;;16.30;99.90;;;;;;5115128;28;20043;-73
2023/05/01 18:17:05;;;;;;;5.90;3.83;;;16.20;99.90;;;;;;5108838;28;20036;-76
2023/05/01 18:19:30;;;;;;;7.60;3.93;;;16.10;99.90;;;;;;5094430;28;20044;-74
2023/05/01 18:21:56;;;;;;;5.03;3.47;;;16.10;99.90;;;;;;5094284;28;20036;-73
2023/05/01 18:24:22;;;;;;;6.07;3.80;;;16.10;99.90;;;;;;5094771;28;20468;-73
2023/05/01 18:26:47;;;;;;;4.20;3.40;;;16.10;99.90;;;;;;5094074;28;20467;-74
2023/05/01 18:29:13;;;;;;;9.43;3.67;;;16.00;99.90;;;;;;5094249;28;20093;-73
2023/05/01 18:31:39;;;;;;;10.83;4.57;;;16.00;99.90;;;;;;5094200;28;20066;-74
2023/05/01 18:34:09;;;;;;;5.23;3.67;;;15.90;99.90;;;;;;5093025;28;20190;-74
2023/05/01 18:36:35;;;;;;;8.63;4.35;;;15.90;99.90;;;;;;5094544;28;20422;-75
2023/05/01 18:39:00;;;;;;;6.50;4.50;;;15.90;99.90;;;;;;5094393;28;20040;-74
2023/05/01 18:41:26;;;;;;;6.87;4.53;;;15.90;99.90;;;;;;5094067;28;20039;-74
2023/05/01 18:43:52;;;;;;;7.50;4.60;;;15.80;99.90;;;;;;5094277;28;20032;-74
2023/05/01 18:46:18;;;;;;;5.97;4.00;;;15.80;99.90;;;;;;5094053;28;20123;-74
2023/05/01 18:48:43;;;;;;;5.73;4.33;;;15.70;99.90;;;;;;5093981;28;20119;-75
2023/05/01 18:51:09;;;;;;;6.60;4.37;;;15.70;99.90;;;;;;5093993;28;20088;-74
2023/05/01 18:53:34;;;;;;;7.20;5.40;;;15.70;99.90;;;;;;5093914;28;20040;-74
2023/05/01 18:56:00;;;;;;;6.30;5.10;;;15.70;99.90;;;;;;5093896;28;20058;-75
2023/05/01 18:58:26;;;;;;;12.90;6.33;;;15.70;99.90;;;;;;5093815;28;20092;-75
2023/05/01 19:00:53;;;;;;;9.90;6.03;;;15.60;99.90;;;;;;5093604;28;20050;-75
2023/05/01 19:03:19;;;;;;;7.47;5.50;;;15.60;99.90;;;;;;5093871;28;20392;-75
2023/05/01 19:05:44;;;;;;;8.37;5.83;;;15.50;99.90;;;;;;5093840;28;20036;-74
2023/05/01 19:08:10;;;;;;;7.63;5.70;;;15.40;99.90;;;;;;5093812;28;20044;-74
2023/05/01 19:10:36;;;;;;;7.23;5.40;;;15.40;99.90;;;;;;5093827;28;20043;-74
2023/05/01 19:13:04;;;;;;;9.07;6.77;;;15.30;99.90;;;;;;5094020;28;20044;-74
2023/05/01 19:15:29;;;;;;;8.90;6.20;;;15.30;99.90;;;;;;5093476;28;20490;-75
2023/05/01 19:17:55;;;;;;;8.53;6.87;;;15.30;99.90;;;;;;5093522;28;20119;-74
2023/05/01 19:20:21;;;;;;;10.03;6.70;;;15.20;99.90;;;;;;5093631;28;20078;-74
2023/05/01 19:22:46;;;;;;;10.27;6.93;;;15.20;99.90;;;;;;5094142;28;20068;-74
2023/05/01 19:25:12;;;;;;;10.80;6.65;;;15.20;99.90;;;;;;5097770;28;20075;-75
2023/05/01 19:27:37;;;;;;;11.87;6.83;;;15.10;99.90;;;;;;5097762;28;20097;-73
2023/05/01 19:30:04;;;;;;;11.03;6.43;;;15.10;99.90;;;;;;5097696;28;20123;-74
2023/05/01 19:32:30;;;;;;;;;;;15.10;99.90;;;;;;5097920;28;20079;-74
2023/05/01 19:34:55;;;;;;;13.82;7.10;;;15.10;99.90;;;;;;5097573;28;20259;-74
2023/05/01 19:37:21;;;;;;;9.77;7.10;;;15.00;99.90;;;;;;5096375;28;20479;-74
2023/05/01 19:39:47;;;;;;;18.93;8.33;;;14.80;99.90;;;;;;5097492;28;20467;-75
2023/05/01 19:42:15;;;;;;;10.30;7.27;;;14.80;99.90;;;;;;5097297;28;20495;-74
2023/05/01 19:44:40;;;;;;;10.18;7.60;;;14.80;99.90;;;;;;5097330;28;20043;-75
2023/05/01 19:47:06;;;;;;;13.07;8.37;;;14.80;99.90;;;;;;5097336;28;20040;-74
2023/05/01 19:49:31;;;;;;;15.80;9.80;;;14.70;99.90;;;;;;5096944;28;20036;-75
2023/05/01 19:51:57;;;;;;;17.47;10.40;;;14.70;99.90;;;;;;5097285;28;20036;-74
2023/05/01 19:54:27;;;;;;;16.07;10.70;;;14.60;99.90;;;;;;5097246;28;20488;-74
2023/05/01 19:56:53;;;;;;;16.88;11.07;;;14.50;99.90;;;;;;5097196;28;20202;-74
2023/05/01 19:59:19;;;;;;;14.55;11.20;;;14.40;99.90;;;;;;5097217;28;20044;-75
2023/05/01 20:01:45;;;;;;;17.27;10.97;;;14.40;99.90;;;;;;5095493;28;20479;-74
2023/05/01 20:04:10;;;;;;;18.47;10.90;;;14.40;99.90;;;;;;5096732;28;20048;-74
2023/05/01 20:06:36;;;;;;;17.17;11.90;;;14.30;99.90;;;;;;5097065;28;20079;-74
2023/05/01 20:09:02;;;;;;;15.07;10.20;;;14.20;99.90;;;;;;5097087;28;20044;-74
2023/05/01 20:11:28;;;;;;;17.20;9.77;;;14.20;99.90;;;;;;5096821;28;20504;-74
2023/05/01 20:13:54;;;;;;;14.30;10.20;;;14.10;99.90;;;;;;5096772;28;20048;-74
2023/05/01 20:16:19;;;;;;;13.60;9.77;;;14.10;99.90;;;;;;5096815;28;20048;-74
2023/05/01 20:18:45;;;;;;;13.60;8.93;;;14.10;99.90;;;;;;5096628;28;20043;-75
2023/05/01 20:21:10;;;;;;;13.15;8.77;;;14.00;99.90;;;;;;5096389;28;20036;-74
2023/05/01 20:23:36;;;;;;;12.32;9.27;;;14.00;99.90;;;;;;5096714;28;20044;-74
2023/05/01 20:26:03;;;;;;;12.57;8.90;;;13.90;99.90;;;;;;5096604;28;20047;-74
2023/05/01 20:28:28;;;;;;;14.02;9.50;;;13.80;99.90;;;;;;5096592;28;20115;-74
2023/05/01 20:30:54;;;;;;;10.67;7.63;;;13.80;99.90;;;;;;5095072;28;20039;-74
2023/05/01 20:33:20;;;;;;;12.73;8.73;;;13.80;99.90;;;;;;5095858;28;20040;-74
2023/05/01 20:35:46;;;;;;;11.35;7.82;;;13.70;99.90;;;;;;5096677;28;20442;-74
2023/05/01 20:38:12;;;;;;;13.80;8.57;;;13.60;99.90;;;;;;5096374;28;20410;-74
2023/05/01 20:40:41;;;;;;;12.63;8.68;;;13.50;99.90;;;;;;5096259;28;20464;-74
2023/05/01 20:43:08;;;;;;;13.05;8.80;;;13.40;99.90;;;;;;5111833;28;20036;-75
2023/05/01 20:45:33;;;;;;;12.13;8.63;;;13.40;99.90;;;;;;5096190;28;20075;-74
2023/05/01 20:47:59;;;;;;;11.73;9.10;;;13.40;99.90;;;;;;5096008;28;20494;-75
2023/05/01 20:50:26;;;;;;;14.52;9.48;;;13.30;99.90;;;;;;5096062;28;20043;-74
2023/05/01 20:52:53;;;;;;;14.45;9.45;;;13.20;99.90;;;;;;5095879;28;20040;-75
2023/05/01 20:55:19;;;;;;;12.60;8.90;;;13.20;99.90;;;;;;5095735;28;20040;-76
2023/05/01 20:57:45;;;;;;;13.97;9.93;;;13.20;99.90;;;;;;5095690;28;20042;-75
2023/05/01 21:00:11;;;;;;;17.30;10.30;;;13.10;99.90;;;;;;5101064;28;20438;-76
2023/05/01 21:02:37;;;;;;;14.83;10.03;;;13.10;99.90;;;;;;5114402;28;20100;-75
2023/05/01 21:05:04;;;;;;;16.95;10.35;;;13.10;99.90;;;;;;5116219;28;20133;-74
2023/05/01 21:07:30;;;;;;;;;;;13.10;99.90;;;;;;5116663;28;20061;-74
2023/05/01 21:09:55;;;;;;;15.02;9.77;;;13.00;99.90;;;;;;5115259;28;20390;-74
2023/05/01 21:12:21;;;;;;;11.60;8.13;;;12.90;99.90;;;;;;5115971;28;20527;-75
2023/05/01 21:14:47;;;;;;;13.63;9.10;;;12.90;99.90;;;;;;5114338;28;20034;-75
2023/05/01 21:17:14;;;;;;;13.43;9.23;;;12.80;99.90;;;;;;5115962;28;20524;-75
2023/05/01 21:19:45;;;;;;;11.68;8.25;;;12.80;99.90;;;;;;5115952;28;20074;-74
2023/05/01 21:22:16;;;;;;;14.05;8.80;;;12.70;99.90;;;;;;5115791;28;20043;-74
2023/05/01 21:24:43;;;;;;;13.18;8.32;;;12.60;99.90;;;;;;5114847;28;20039;-75
2023/05/01 21:27:10;;;;;;;15.70;10.07;;;12.60;99.90;;;;;;5115780;28;20039;-74
2023/05/01 21:29:38;;;;;;;14.50;8.82;;;12.50;99.90;;;;;;5115739;28;20387;-75
2023/05/01 21:32:04;;;;;;;15.68;9.93;;;12.50;99.90;;;;;;5115740;28;20075;-75
2023/05/01 21:34:29;;;;;;;14.03;9.57;;;12.40;99.90;;;;;;5116107;28;20078;-75
2023/05/01 21:36:55;;;;;;;14.70;9.10;;;12.30;99.90;;;;;;5114999;28;20081;-74
2023/05/01 21:39:23;;;;;;;15.27;9.93;;;12.30;99.90;;;;;;5114748;28;20035;-76
2023/05/01 21:41:49;;;;;;;14.82;9.30;;;12.40;99.90;;;;;;5114905;28;20077;-76
2023/05/01 21:44:15;;;;;;;18.25;9.98;;;12.50;99.90;;;;;;5115002;28;20534;-75
2023/05/01 21:46:41;;;;;;;16.97;9.87;;;12.20;99.90;;;;;;5114283;28;20090;-73
2023/05/01 21:49:10;;;;;;;15.18;10.15;;;12.10;99.90;;;;;;5115377;28;20459;-73
2023/05/01 21:51:37;;;;;;;15.77;10.05;;;12.00;99.90;;;;;;5115373;28;20082;-72
2023/05/01 21:54:03;;;;;;;;;;;12.00;99.90;;;;;;5115719;28;20486;-73
2023/05/01 21:56:29;;;;;;;16.75;11.07;;;12.00;99.90;;;;;;5115485;28;19916;-73
2023/05/01 21:59:03;;;;;;;16.75;9.23;;;12.20;99.90;;;;;;5115504;28;20460;-73
2023/05/01 22:01:29;;;;;;;17.23;10.15;;;11.90;99.90;;;;;;5115047;28;20047;-73
2023/05/01 22:03:54;;;;;;;13.87;9.17;;;11.80;99.90;;;;;;5115102;28;20052;-73
2023/05/01 22:06:23;;;;;;;17.07;10.83;;;11.90;99.90;;;;;;5114979;28;20486;-73
2023/05/01 22:08:50;;;;;;;17.55;10.73;;;11.80;99.90;;;;;;5115031;28;20074;-73
2023/05/01 22:11:16;;;;;;;17.73;11.60;;;11.80;99.90;;;;;;5114990;28;20423;-74
2023/05/01 22:13:42;;;;;;;18.27;10.63;;;11.80;99.90;;;;;;5114920;28;20082;-74
2023/05/01 22:16:07;;;;;;;16.10;9.90;;;11.80;99.90;;;;;;5114825;28;20455;-73
2023/05/01 22:18:33;;;;;;;15.90;11.17;;;11.80;99.90;;;;;;5114727;28;20164;-73
2023/05/01 22:21:00;;;;;;;17.98;10.18;;;11.80;99.90;;;;;;5114761;28;20043;-73
2023/05/01 22:23:25;;;;;;;17.02;10.70;;;12.00;99.90;;;;;;5114762;28;20467;-73
2023/05/01 22:25:58;;;;;;;19.23;10.35;;;11.70;99.90;;;;;;5114593;28;20054;-73
2023/05/01 22:28:27;;;;;;;17.35;9.90;;;11.80;99.90;;;;;;5114681;28;20122;-73
2023/05/01 22:30:53;;;;;;;17.85;11.70;;;11.70;99.90;;;;;;5114624;28;20047;-73
2023/05/01 22:33:19;;;;;;;19.90;11.10;;;11.60;99.90;;;;;;5115200;27;20118;-73
2023/05/01 22:35:44;;;;;;;16.97;11.43;;;11.60;99.90;;;;;;5114621;28;20039;-73
2023/05/01 22:38:10;;;;;;;19.35;10.75;;;11.60;99.90;;;;;;5147697;27;20035;-73
2023/05/01 22:40:36;;;;;;;18.60;10.75;;;11.50;99.90;;;;;;5114525;28;20035;-76
2023/05/01 22:43:01;;;;;;;19.13;11.82;;;11.40;99.90;;;;;;5113186;28;20035;-73
2023/05/01 22:45:27;;;;;;;18.40;11.23;;;11.60;99.90;;;;;;5114155;28;20039;-73
2023/05/01 22:47:52;;;;;;;20.20;10.63;;;11.60;99.90;;;;;;5114710;28;20160;-74
2023/05/01 22:50:18;;;;;;;18.95;11.80;;;11.60;99.90;;;;;;5114323;28;20463;-75
2023/05/01 22:52:43;;;;;;;20.83;11.77;;;11.60;99.90;;;;;;5114471;28;20034;-76
2023/05/01 22:55:09;;;;;;;17.75;10.77;;;11.60;99.90;;;;;;5114318;28;20057;-73
2023/05/01 22:57:35;;;;;;;18.30;10.57;;;11.60;99.90;;;;;;5114076;28;20046;-73
2023/05/01 23:00:00;;;;;;;20.20;12.82;;;11.60;99.90;;;;;;5114268;28;20043;-76
2023/05/01 23:02:26;;;;;;;18.83;10.63;;;11.50;99.90;;;;;;5114288;28;20052;-75
2023/05/01 23:04:51;;;;;;;16.92;11.55;;;11.70;99.90;;;;;;5114236;28;20510;-75
2023/05/01 23:07:17;;;;;;;18.33;11.27;;;11.70;99.90;;;;;;5114197;28;20040;-75
2023/05/01 23:09:43;;;;;;;17.00;10.98;;;11.70;99.90;;;;;;5114196;28;20044;-75
2023/05/01 23:12:27;;;;;;;19.35;10.57;;;11.70;99.90;;;;;;5114142;28;20039;-75
2023/05/01 23:14:54;;;;;;;15.57;10.60;;;12.20;99.90;;;;;;5114215;28;20043;-75
2023/05/01 23:17:20;;;;;;;17.45;11.18;;;11.70;99.90;;;;;;5114137;28;20078;-75
2023/05/01 23:19:46;;;;;;;17.70;9.73;;;11.60;99.90;;;;;;5114161;28;20379;-75
2023/05/01 23:22:12;;;;;;;14.38;9.70;;;11.70;99.90;;;;;;5114114;28;20289;-76
2023/05/01 23:24:43;;;;;;;17.67;10.38;;;11.70;99.90;;;;;;5113956;28;20451;-74
2023/05/01 23:27:12;;;;;;;18.13;10.38;;;11.70;99.90;;;;;;5114002;28;20036;-75
2023/05/01 23:29:39;;;;;;;20.08;10.63;;;11.70;99.90;;;;;;5113961;28;20104;-75
2023/05/01 23:32:08;;;;;;;18.75;10.18;;;11.70;99.90;;;;;;5113998;28;20074;-75
2023/05/01 23:34:34;;;;;;;16.63;9.57;;;11.70;99.90;;;;;;5113867;28;20051;-75
2023/05/01 23:37:00;;;;;;;16.20;9.07;;;11.70;99.90;;;;;;5113917;28;20039;-75
2023/05/01 23:39:25;;;;;;;15.45;9.23;;;11.70;99.90;;;;;;5113764;28;20050;-75
2023/05/01 23:41:52;;;;;;;16.80;9.35;;;11.70;99.90;;;;;;5113801;28;20035;-75
2023/05/01 23:44:17;;;;;;;14.77;8.50;;;11.70;99.90;;;;;;5113867;28;20082;-75
2023/05/01 23:46:43;;;;;;;17.38;9.05;;;11.70;99.90;;;;;;5113840;28;20093;-75